This is the latest recevied weather packets stored in our database for station/object K5OLV. If no packets are shown the sender has not sent any weather packets the latest 10 day(s).
| Time | Temp. | Humidity | Pressure | Rain* | Wind** | Luminosity | Snow |
|---|---|---|---|---|---|---|---|
| 1777659134 | 16.67° C | 58% | 1012.2 hPa | 0 mm | - | 332 W/m² | - |
| 1777658832 | 16.67° C | 59% | 1012 hPa | 0 mm | - | 332 W/m² | - |
| 1777658527 | 16.67° C | 58% | 1012.3 hPa | 0 mm | - | 378 W/m² | - |
| 1777658224 | 16.67° C | 60% | 1012.1 hPa | 0 mm | - | 373 W/m² | - |
| 1777657921 | 16.67° C | 57% | 1012.4 hPa | 0 mm | - | 383 W/m² | - |
| 1777657617 | 17.22° C | 60% | 1012.4 hPa | 0 mm | - | 433 W/m² | - |
| 1777657315 | 16.67° C | 61% | 1012.2 hPa | 0 mm | - | 439 W/m² | - |
| 1777657012 | 16.67° C | 58% | 1012.1 hPa | 0 mm | - | 427 W/m² | - |
| 1777656709 | 15.56° C | 56% | 1012.2 hPa | 0 mm | - | 432 W/m² | - |
| 1777656405 | 16.11° C | 62% | 1012.2 hPa | 0 mm | - | 389 W/m² | - |
| 1777656100 | 16.11° C | 56% | 1012.4 hPa | 0 mm | - | 436 W/m² | - |
| 1777655797 | 16.67° C | 63% | 1012.3 hPa | 0 mm | - | 463 W/m² | - |
| 1777655494 | 15.56° C | 58% | 1012.3 hPa | 0 mm | - | 495 W/m² | - |
| 1777655191 | 16.67° C | 53% | 1012.3 hPa | 0 mm | - | 488 W/m² | - |
| 1777654887 | 16.67° C | 55% | 1012.4 hPa | 0 mm | - | 473 W/m² | - |
| 1777654585 | 16.11° C | 56% | 1012.4 hPa | 0 mm | - | 450 W/m² | - |
| 1777654282 | 15.56° C | 58% | 1012.7 hPa | 0 mm | - | 473 W/m² | - |
| 1777653980 | 15.56° C | 59% | 1012.4 hPa | 0 mm | - | 402 W/m² | - |
| 1777653677 | 15.56° C | 57% | 1012.3 hPa | 0 mm | - | 334 W/m² | - |
| 1777653373 | 16.11° C | 54% | 1012.4 hPa | 0 mm | - | 337 W/m² | - |
| 1777653070 | 16.11° C | 62% | 1012.5 hPa | 0 mm | - | 378 W/m² | - |
| 1777652766 | 15° C | 58% | 1012.5 hPa | 0 mm | - | 396 W/m² | - |
| 1777652463 | 15° C | 59% | 1012.5 hPa | 0 mm | - | 363 W/m² | - |
| 1777652155 | 15° C | 60% | 1012.6 hPa | 0 mm | - | 409 W/m² | - |
| 1777651851 | 15° C | 64% | 1012.6 hPa | 0 mm | - | 400 W/m² | - |
* Rain latest hour (hover to see other rain measurements)
** Current wind speed in m/s (hover to see current wind gust speed)